Arbela, Missouri
Current Conditions -  °F | °C
As of 6:55 PM on Monday 26 Jan 2015 (Local Time) from KEOK Reporting Station
Overcast Overcast  
Wind Chill:   Ceiling: 4500
Heat Index:   Visibility: 10mi
Dew Point:   Wind: 0mph
Humidity: 87%   Direction: NA
Pressure: 29.88"   Gusts: NA
Location:  40.46°N, 92.02°W
Report Text: KEOK 270055Z AUTO 00000KT 10SM FEW034 OVC045 04/02 A2988 RMK AO2
Loading
Personal Weather Stations






























Interactive Weather Map New forecast layout! Learn more

10-Day Weather Forecast

Advertisements
Track Severe Weather on mobile